Time;durP1;ratioP1;P1;durP2;ratioP2;P2;SDS_P1;SDS_P2;PMS_P1;PMS_P2;Temp;Humidity;BMP_temperature;BMP_pressure;BME280_temperature;BME280_humidity;BME280_pressure;Samples;Min_cycle;Max_cycle;Signal;HPM_P1;HPM_P2
2023/12/12 00:02:10;;;;;;;19.98;6.38;;;8.90;99.90;;;;;;5093062;28;20044;-65
2023/12/12 00:04:37;;;;;;;16.08;6.35;;;8.90;99.90;;;;;;5093296;28;20081;-65
2023/12/12 00:07:04;;;;;;;14.50;5.82;;;9.00;99.90;;;;;;5092851;28;20063;-65
2023/12/12 00:09:31;;;;;;;19.50;5.88;;;9.10;99.90;;;;;;5092503;28;20074;-66
2023/12/12 00:11:58;;;;;;;16.27;5.80;;;9.10;99.90;;;;;;5092630;28;20097;-65
2023/12/12 00:14:24;;;;;;;16.85;6.20;;;9.10;99.90;;;;;;5093191;28;20040;-65
2023/12/12 00:16:51;;;;;;;15.70;5.75;;;9.20;99.90;;;;;;5092810;28;20040;-65
2023/12/12 00:19:18;;;;;;;19.08;5.57;;;9.20;99.90;;;;;;5092690;28;20079;-65
2023/12/12 00:21:45;;;;;;;12.13;4.85;;;9.30;99.90;;;;;;5092729;28;20040;-66
2023/12/12 00:24:12;;;;;;;10.77;4.15;;;9.30;99.90;;;;;;5093010;28;20047;-66
2023/12/12 00:26:38;;;;;;;11.30;4.75;;;9.30;99.90;;;;;;5095916;28;20100;-66
2023/12/12 00:29:05;;;;;;;15.25;5.10;;;9.40;99.90;;;;;;5094996;28;20047;-66
2023/12/12 00:31:32;;;;;;;13.25;4.93;;;9.40;99.90;;;;;;5096342;28;20051;-65
2023/12/12 00:33:59;;;;;;;16.92;5.45;;;9.30;99.90;;;;;;5096472;28;20065;-66
2023/12/12 00:36:26;;;;;;;10.90;4.85;;;9.30;99.90;;;;;;5096282;28;20040;-66
2023/12/12 00:38:52;;;;;;;17.75;5.68;;;9.30;99.90;;;;;;5095976;28;20048;-66
2023/12/12 00:41:19;;;;;;;14.93;5.20;;;9.40;99.90;;;;;;5096340;28;20044;-65
2023/12/12 00:43:46;;;;;;;13.20;5.47;;;9.40;99.90;;;;;;5095714;28;20054;-67
2023/12/12 00:46:13;;;;;;;13.07;5.18;;;9.40;99.90;;;;;;5095800;28;20418;-66
2023/12/12 00:48:40;;;;;;;13.82;5.47;;;9.40;99.90;;;;;;5096076;28;20050;-66
2023/12/12 00:51:07;;;;;;;13.43;6.00;;;9.50;99.90;;;;;;5096332;28;20042;-66
2023/12/12 00:53:33;;;;;;;10.77;4.93;;;9.50;99.90;;;;;;5095963;28;20040;-67
2023/12/12 00:56:00;;;;;;;12.35;5.82;;;9.50;99.90;;;;;;5095874;28;20138;-66
2023/12/12 00:58:27;;;;;;;14.45;5.00;;;9.50;99.90;;;;;;5095625;28;20040;-66
2023/12/12 01:00:54;;;;;;;14.05;5.38;;;9.50;99.90;;;;;;5095728;28;20048;-66
2023/12/12 01:03:21;;;;;;;11.07;5.13;;;9.60;99.90;;;;;;5095662;28;20047;-66
2023/12/12 01:05:47;;;;;;;13.15;5.47;;;9.60;99.90;;;;;;5095712;28;20105;-66
2023/12/12 01:08:14;;;;;;;11.98;5.85;;;9.60;99.90;;;;;;5095225;28;20039;-66
2023/12/12 01:10:41;;;;;;;12.40;5.32;;;9.60;99.90;;;;;;5095895;28;20032;-66
2023/12/12 01:13:08;;;;;;;12.00;5.15;;;9.60;99.90;;;;;;5095521;28;20040;-66
2023/12/12 01:15:35;;;;;;;11.15;3.65;;;9.70;99.90;;;;;;5095630;28;20040;-66
2023/12/12 01:18:01;;;;;;;12.77;4.20;;;9.70;99.90;;;;;;5095347;28;20040;-66
2023/12/12 01:20:28;;;;;;;12.40;3.72;;;9.70;99.90;;;;;;5095274;28;20101;-66
2023/12/12 01:22:55;;;;;;;10.25;3.60;;;9.70;99.90;;;;;;5095206;28;20409;-66
2023/12/12 01:25:22;;;;;;;12.55;3.65;;;9.80;99.90;;;;;;5095109;28;20462;-66
2023/12/12 01:27:49;;;;;;;16.13;3.60;;;9.80;99.90;;;;;;5095204;28;20123;-66
2023/12/12 01:30:16;;;;;;;10.93;3.30;;;9.80;99.90;;;;;;5094796;28;20481;-66
2023/12/12 01:32:42;;;;;;;7.45;3.35;;;9.80;99.90;;;;;;5095513;28;20036;-66
2023/12/12 01:35:09;;;;;;;10.05;3.72;;;9.80;99.90;;;;;;5095518;28;20036;-66
2023/12/12 01:37:36;;;;;;;7.32;3.42;;;9.80;99.90;;;;;;5093868;28;20101;-66
2023/12/12 01:40:04;;;;;;;10.20;3.58;;;9.80;99.90;;;;;;5094844;28;20044;-66
2023/12/12 01:42:31;;;;;;;10.38;3.50;;;9.90;99.90;;;;;;5095066;28;20127;-66
2023/12/12 01:44:58;;;;;;;7.60;2.95;;;9.80;99.90;;;;;;5093637;28;20051;-66
2023/12/12 01:47:25;;;;;;;11.05;3.22;;;9.80;99.90;;;;;;5094750;28;20043;-66
2023/12/12 01:49:52;;;;;;;8.02;2.50;;;9.90;99.90;;;;;;5094999;28;20067;-66
2023/12/12 01:52:18;;;;;;;9.20;2.38;;;9.90;99.90;;;;;;5094635;28;20093;-66
2023/12/12 01:54:45;;;;;;;5.78;1.92;;;9.90;99.90;;;;;;5095205;28;20044;-66
2023/12/12 01:57:12;;;;;;;8.85;2.42;;;9.90;99.90;;;;;;5093598;28;20044;-66
2023/12/12 01:59:39;;;;;;;7.75;2.17;;;9.90;99.90;;;;;;5094526;28;20036;-66
2023/12/12 02:02:05;;;;;;;8.10;1.83;;;10.00;99.90;;;;;;5094868;28;20036;-66
2023/12/12 02:04:32;;;;;;;8.80;2.33;;;10.00;99.90;;;;;;5094628;28;20426;-66
2023/12/12 02:06:59;;;;;;;7.18;2.22;;;10.00;99.90;;;;;;5094181;28;20044;-66
2023/12/12 02:09:26;;;;;;;8.80;2.30;;;10.00;99.90;;;;;;5094629;28;20049;-66
2023/12/12 02:11:53;;;;;;;9.88;2.58;;;10.00;99.90;;;;;;5094381;28;20403;-66
2023/12/12 02:14:20;;;;;;;7.75;2.67;;;10.00;99.90;;;;;;5094516;28;20040;-66
2023/12/12 02:16:46;;;;;;;5.03;2.42;;;10.00;99.90;;;;;;5094087;28;20512;-66
2023/12/12 02:19:13;;;;;;;9.05;2.38;;;10.00;99.90;;;;;;5094124;28;20075;-66
2023/12/12 02:21:40;;;;;;;11.35;2.80;;;10.00;99.90;;;;;;5094090;28;20097;-66
2023/12/12 02:24:07;;;;;;;10.45;2.97;;;10.00;99.90;;;;;;5092923;28;20047;-65
2023/12/12 02:26:34;;;;;;;7.85;2.95;;;10.00;99.90;;;;;;5094158;28;20059;-65
2023/12/12 02:29:00;;;;;;;10.25;3.30;;;10.00;99.90;;;;;;5093700;28;20040;-65
2023/12/12 02:31:27;;;;;;;8.07;3.15;;;10.00;99.90;;;;;;5094394;28;20473;-66
2023/12/12 02:33:54;;;;;;;6.85;3.35;;;10.10;99.90;;;;;;5094471;28;20036;-65
2023/12/12 02:36:21;;;;;;;9.70;3.60;;;10.10;99.90;;;;;;5093881;28;20076;-69
2023/12/12 02:38:48;;;;;;;10.25;3.53;;;10.10;99.90;;;;;;5094139;28;20044;-68
2023/12/12 02:41:14;;;;;;;9.98;3.17;;;10.00;99.90;;;;;;5093903;28;20051;-68
2023/12/12 02:43:41;;;;;;;8.90;3.92;;;10.00;99.90;;;;;;5094087;28;20044;-69
2023/12/12 02:46:08;;;;;;;11.82;3.70;;;10.00;99.90;;;;;;5094352;28;20070;-68
2023/12/12 02:48:35;;;;;;;13.15;4.05;;;10.00;99.90;;;;;;5093788;28;20044;-68
2023/12/12 02:51:02;;;;;;;8.13;3.92;;;10.10;99.90;;;;;;5093599;28;20036;-68
2023/12/12 02:53:28;;;;;;;8.50;3.85;;;10.00;99.90;;;;;;5093825;28;20032;-69
2023/12/12 02:55:55;;;;;;;10.98;4.45;;;10.10;99.90;;;;;;5094080;28;20044;-70
2023/12/12 02:58:22;;;;;;;7.05;3.38;;;10.10;99.90;;;;;;5093400;28;20089;-68
2023/12/12 03:00:49;;;;;;;7.05;3.20;;;10.10;99.90;;;;;;5093898;28;20036;-68
2023/12/12 03:03:16;;;;;;;11.55;3.50;;;10.10;99.90;;;;;;5093239;28;20055;-68
2023/12/12 03:05:43;;;;;;;11.55;3.63;;;10.00;99.90;;;;;;5093540;28;20046;-68
2023/12/12 03:08:10;;;;;;;7.10;3.60;;;10.00;99.90;;;;;;5093258;28;20047;-68
2023/12/12 03:10:36;;;;;;;12.15;3.97;;;10.00;99.90;;;;;;5093803;28;20040;-68
2023/12/12 03:13:03;;;;;;;7.70;3.97;;;10.00;99.90;;;;;;5092291;28;20076;-68
2023/12/12 03:15:30;;;;;;;11.70;4.28;;;10.00;99.90;;;;;;5093825;28;20365;-68
2023/12/12 03:17:57;;;;;;;10.15;4.15;;;10.00;99.90;;;;;;5093154;28;20064;-68
2023/12/12 03:20:24;;;;;;;8.27;4.50;;;9.90;99.90;;;;;;5093414;28;20036;-68
2023/12/12 03:22:51;;;;;;;10.98;5.00;;;9.90;99.90;;;;;;5093376;28;20040;-69
2023/12/12 03:25:17;;;;;;;13.07;4.93;;;9.90;99.90;;;;;;5091974;28;20040;-68
2023/12/12 03:27:45;;;;;;;10.50;4.65;;;10.00;99.90;;;;;;5093388;28;20036;-69
2023/12/12 03:30:12;;;;;;;13.02;4.82;;;10.00;99.90;;;;;;5092930;28;20050;-68
2023/12/12 03:32:39;;;;;;;11.70;4.32;;;10.00;99.90;;;;;;5093513;28;20044;-69
2023/12/12 03:35:06;;;;;;;11.77;4.53;;;10.10;99.90;;;;;;5092586;28;20036;-69
2023/12/12 03:37:33;;;;;;;12.73;4.55;;;10.10;99.90;;;;;;5093089;28;20040;-69
2023/12/12 03:40:00;;;;;;;11.63;4.65;;;10.10;99.90;;;;;;5093007;28;20521;-69
2023/12/12 03:42:27;;;;;;;14.25;4.95;;;10.10;99.90;;;;;;5092999;28;20040;-69
2023/12/12 03:44:54;;;;;;;11.10;4.88;;;10.20;99.90;;;;;;5092041;28;20366;-68
2023/12/12 03:47:20;;;;;;;11.18;5.68;;;10.20;99.90;;;;;;5093012;28;20381;-69
2023/12/12 03:49:47;;;;;;;11.00;4.88;;;10.20;99.90;;;;;;5093278;28;20048;-68
2023/12/12 03:52:14;;;;;;;14.07;5.50;;;10.20;99.90;;;;;;5092844;28;20032;-69
2023/12/12 03:54:41;;;;;;;14.65;4.97;;;10.30;99.90;;;;;;5093452;28;20070;-69
2023/12/12 03:57:08;;;;;;;9.90;4.32;;;10.30;99.90;;;;;;5093479;28;20079;-68
2023/12/12 03:59:34;;;;;;;9.38;4.43;;;10.30;99.90;;;;;;5093315;28;20550;-69
2023/12/12 04:02:01;;;;;;;9.70;3.50;;;10.30;99.90;;;;;;5097033;28;20402;-69
2023/12/12 04:04:28;;;;;;;8.13;3.40;;;10.30;99.90;;;;;;5097099;28;20040;-69
2023/12/12 04:06:55;;;;;;;7.93;3.13;;;10.40;99.90;;;;;;5096673;28;20036;-69
2023/12/12 04:09:22;;;;;;;6.88;3.22;;;10.40;99.90;;;;;;5096941;28;20042;-69
2023/12/12 04:11:48;;;;;;;7.13;3.35;;;10.40;99.90;;;;;;5096327;28;20040;-69
2023/12/12 04:14:15;;;;;;;4.38;3.03;;;10.40;99.90;;;;;;5096816;28;20225;-69
2023/12/12 04:16:42;;;;;;;8.70;3.28;;;10.40;99.90;;;;;;5096710;28;20043;-69
2023/12/12 04:19:09;;;;;;;6.25;3.20;;;10.40;99.90;;;;;;5096692;28;20036;-69
2023/12/12 04:21:35;;;;;;;5.78;2.60;;;10.40;99.90;;;;;;5095117;28;20075;-69
2023/12/12 04:24:02;;;;;;;4.50;2.60;;;10.40;99.90;;;;;;5096522;28;20346;-69
2023/12/12 04:26:29;;;;;;;5.10;2.75;;;10.40;99.90;;;;;;5097154;28;20036;-69
2023/12/12 04:28:56;;;;;;;4.18;2.25;;;10.40;99.90;;;;;;5094942;28;20097;-68
2023/12/12 04:31:23;;;;;;;3.58;2.03;;;10.40;99.90;;;;;;5096321;28;20044;-68
2023/12/12 04:33:49;;;;;;;6.43;2.10;;;10.50;99.90;;;;;;5096610;28;20572;-65
2023/12/12 04:36:16;;;;;;;5.00;1.75;;;10.50;99.90;;;;;;5096606;28;20048;-66
2023/12/12 04:38:43;;;;;;;5.53;1.70;;;10.60;99.90;;;;;;5096523;28;20048;-66
2023/12/12 04:41:10;;;;;;;5.00;1.90;;;10.70;99.90;;;;;;5096600;28;20054;-66
2023/12/12 04:43:37;;;;;;;5.63;2.13;;;10.70;99.90;;;;;;5096239;28;20049;-66
2023/12/12 04:46:03;;;;;;;6.28;2.78;;;10.70;99.90;;;;;;5096049;28;20438;-66
2023/12/12 04:48:30;;;;;;;6.63;2.25;;;10.80;99.90;;;;;;5095917;28;20034;-66
2023/12/12 04:50:57;;;;;;;11.70;2.60;;;10.80;99.90;;;;;;5096416;28;20040;-66
2023/12/12 04:53:24;;;;;;;9.10;2.88;;;10.80;99.90;;;;;;5095857;28;20040;-66
2023/12/12 04:55:51;;;;;;;9.57;2.65;;;10.80;99.90;;;;;;5096223;28;20094;-67
2023/12/12 04:58:17;;;;;;;9.82;2.85;;;10.80;99.90;;;;;;5096013;28;20044;-66
2023/12/12 05:00:44;;;;;;;9.95;2.67;;;10.90;99.90;;;;;;5095816;28;20072;-67
2023/12/12 05:03:11;;;;;;;8.57;2.67;;;10.90;99.90;;;;;;5095796;28;20097;-67
2023/12/12 05:05:38;;;;;;;6.43;2.42;;;10.90;99.90;;;;;;5096105;28;20036;-66
2023/12/12 05:08:05;;;;;;;7.35;2.50;;;10.90;99.90;;;;;;5095847;28;20060;-66
2023/12/12 05:10:31;;;;;;;10.38;2.60;;;10.90;99.90;;;;;;5095278;28;20118;-66
2023/12/12 05:12:59;;;;;;;7.43;1.90;;;10.90;99.90;;;;;;5094171;28;20430;-66
2023/12/12 05:15:27;;;;;;;5.63;1.50;;;10.90;99.90;;;;;;5095250;28;20036;-66
2023/12/12 05:17:54;;;;;;;4.55;1.60;;;11.00;99.90;;;;;;5095976;28;20046;-66
2023/12/12 05:20:21;;;;;;;6.57;1.80;;;11.00;99.90;;;;;;5095688;28;20477;-66
2023/12/12 05:22:48;;;;;;;5.80;1.38;;;11.00;99.90;;;;;;5095843;28;20062;-66
2023/12/12 05:25:15;;;;;;;6.38;1.55;;;11.00;99.90;;;;;;5095547;28;20035;-66
2023/12/12 05:27:42;;;;;;;5.15;1.42;;;11.10;99.90;;;;;;5095239;28;20354;-66
2023/12/12 05:30:09;;;;;;;4.93;1.20;;;11.00;99.90;;;;;;5095579;28;20039;-66
2023/12/12 05:32:35;;;;;;;5.07;1.77;;;11.10;99.90;;;;;;5095537;28;20048;-67
2023/12/12 05:35:03;;;;;;;7.78;2.22;;;11.10;99.90;;;;;;5095470;28;20044;-67
2023/12/12 05:37:29;;;;;;;6.82;1.60;;;11.00;99.90;;;;;;5095571;28;20126;-67
2023/12/12 05:39:57;;;;;;;5.10;1.48;;;11.00;99.90;;;;;;5095261;28;20093;-67
2023/12/12 05:42:23;;;;;;;5.35;1.65;;;11.10;99.90;;;;;;5095034;28;20044;-67
2023/12/12 05:44:50;;;;;;;7.72;1.50;;;11.10;99.90;;;;;;5094769;28;20563;-66
2023/12/12 05:47:17;;;;;;;4.85;1.50;;;11.10;99.90;;;;;;5095132;28;20036;-66
2023/12/12 05:49:44;;;;;;;7.57;1.48;;;11.10;99.90;;;;;;5094638;28;20044;-66
2023/12/12 05:52:10;;;;;;;6.95;1.70;;;11.10;99.90;;;;;;5094896;28;20044;-67
2023/12/12 05:54:37;;;;;;;6.63;1.58;;;11.10;99.90;;;;;;5095205;28;20380;-66
2023/12/12 05:57:04;;;;;;;5.97;1.50;;;11.10;99.90;;;;;;5094493;28;20378;-66
2023/12/12 05:59:31;;;;;;;7.40;1.60;;;11.10;99.90;;;;;;5094587;28;20086;-66
2023/12/12 06:01:58;;;;;;;5.82;1.52;;;11.10;99.90;;;;;;5094766;28;20469;-66
2023/12/12 06:04:25;;;;;;;7.00;1.88;;;11.20;99.90;;;;;;5094452;28;20043;-66
2023/12/12 06:06:52;;;;;;;7.40;1.60;;;11.20;99.90;;;;;;5094877;28;20516;-66
2023/12/12 06:09:19;;;;;;;5.22;1.20;;;11.20;99.90;;;;;;5094418;28;20118;-66
2023/12/12 06:11:46;;;;;;;6.60;1.77;;;11.20;99.90;;;;;;5094648;28;20381;-66
2023/12/12 06:14:12;;;;;;;3.72;1.10;;;11.30;99.90;;;;;;5093399;28;20350;-66
2023/12/12 06:16:39;;;;;;;3.33;1.00;;;11.20;99.90;;;;;;5094244;28;20036;-66
2023/12/12 06:19:06;;;;;;;5.10;1.27;;;11.20;99.90;;;;;;5094957;28;20108;-66
2023/12/12 06:21:33;;;;;;;7.68;1.20;;;11.10;99.90;;;;;;5094359;28;20101;-66
2023/12/12 06:24:00;;;;;;;5.75;0.80;;;11.10;99.90;;;;;;5093980;28;20039;-66
2023/12/12 06:26:27;;;;;;;3.28;0.70;;;11.10;99.90;;;;;;5093047;28;20089;-66
2023/12/12 06:28:54;;;;;;;2.70;0.70;;;11.00;99.90;;;;;;5094385;28;20050;-66
2023/12/12 06:31:20;;;;;;;2.53;0.55;;;10.90;99.90;;;;;;5094825;28;20167;-66
2023/12/12 06:33:47;;;;;;;5.07;0.70;;;10.90;99.90;;;;;;5094790;28;20489;-66
2023/12/12 06:36:14;;;;;;;2.42;0.88;;;10.80;99.90;;;;;;5094073;28;20123;-66
2023/12/12 06:38:42;;;;;;;2.22;0.68;;;10.80;99.90;;;;;;5094519;28;20067;-66
2023/12/12 06:41:09;;;;;;;4.13;0.60;;;10.70;99.90;;;;;;5094448;28;20161;-66
2023/12/12 06:43:36;;;;;;;1.90;0.50;;;10.70;99.90;;;;;;5094103;28;20051;-66
2023/12/12 06:46:03;;;;;;;2.33;0.52;;;10.60;99.90;;;;;;5094348;28;20052;-66
2023/12/12 06:48:30;;;;;;;3.75;0.60;;;10.60;99.90;;;;;;5093807;28;20047;-66
2023/12/12 06:50:57;;;;;;;2.60;0.60;;;10.60;99.90;;;;;;5092827;28;20043;-66
2023/12/12 06:53:23;;;;;;;3.13;0.63;;;10.60;99.90;;;;;;5094201;28;20028;-66
2023/12/12 06:55:50;;;;;;;4.03;0.80;;;10.50;99.90;;;;;;5092428;28;20078;-66
2023/12/12 06:58:17;;;;;;;4.00;0.90;;;10.50;99.90;;;;;;5093809;28;20039;-66
2023/12/12 07:00:44;;;;;;;4.80;0.98;;;10.50;99.90;;;;;;5094101;28;20481;-66
2023/12/12 07:03:11;;;;;;;4.43;0.98;;;10.40;99.90;;;;;;5093944;28;20115;-66
2023/12/12 07:05:38;;;;;;;4.22;1.00;;;10.40;99.90;;;;;;5093900;28;20490;-66
2023/12/12 07:08:04;;;;;;;3.88;1.10;;;10.30;99.90;;;;;;5092371;28;20036;-66
2023/12/12 07:10:31;;;;;;;3.72;1.20;;;10.30;99.90;;;;;;5093941;28;20437;-66
2023/12/12 07:12:59;;;;;;;5.60;1.02;;;10.30;99.90;;;;;;5092942;28;20102;-66
2023/12/12 07:15:26;;;;;;;3.67;1.35;;;10.30;99.90;;;;;;5094145;28;20040;-66
2023/12/12 07:17:53;;;;;;;3.88;1.48;;;10.30;99.90;;;;;;5093749;28;20392;-66
2023/12/12 07:20:21;;;;;;;4.53;1.52;;;10.30;99.90;;;;;;5092632;28;20054;-70
2023/12/12 07:22:47;;;;;;;5.00;1.90;;;10.30;99.90;;;;;;5092648;28;20051;-71
2023/12/12 07:25:15;;;;;;;5.22;1.75;;;10.30;99.90;;;;;;5093941;28;20142;-70
2023/12/12 07:27:42;;;;;;;5.13;2.00;;;10.30;99.90;;;;;;5093374;28;20062;-70
2023/12/12 07:30:10;;;;;;;2.75;2.08;;;10.30;99.90;;;;;;5093824;28;20035;-70
2023/12/12 07:32:37;;;;;;;3.90;1.85;;;10.30;99.90;;;;;;5093898;28;20415;-71
2023/12/12 07:35:04;;;;;;;3.90;2.20;;;10.20;99.90;;;;;;5094930;28;20028;-70
2023/12/12 07:37:31;;;;;;;6.68;2.70;;;10.30;99.90;;;;;;5097780;28;20090;-70
2023/12/12 07:39:58;;;;;;;4.38;2.40;;;10.30;99.90;;;;;;5097992;28;20044;-70
2023/12/12 07:42:26;;;;;;;5.20;2.90;;;10.30;99.90;;;;;;5096142;28;20078;-70
2023/12/12 07:44:57;;;;;;;4.97;1.50;;;10.30;99.90;;;;;;5097404;28;20052;-71
2023/12/12 07:47:24;;;;;;;4.90;1.63;;;10.30;99.90;;;;;;5096762;28;20036;-71
2023/12/12 07:50:05;;;;;;;3.05;1.48;;;10.40;99.90;;;;;;5097632;28;20036;-70
2023/12/12 07:52:32;;;;;;;2.90;0.90;;;10.40;99.90;;;;;;5096676;28;20051;-70
2023/12/12 07:54:59;;;;;;;3.35;1.02;;;10.40;99.90;;;;;;5095918;28;20036;-70
2023/12/12 07:57:26;;;;;;;3.53;1.00;;;10.40;99.90;;;;;;5097512;28;20059;-70
2023/12/12 07:59:53;;;;;;;2.70;0.90;;;10.40;99.90;;;;;;5097115;28;20045;-70
2023/12/12 08:02:21;;;;;;;5.82;2.30;;;10.50;99.90;;;;;;5096931;28;20044;-71
2023/12/12 08:04:48;;;;;;;4.65;1.88;;;10.50;99.90;;;;;;5096836;28;20047;-70
2023/12/12 08:07:16;;;;;;;4.68;1.48;;;10.50;99.90;;;;;;5096737;28;20427;-70
2023/12/12 08:09:43;;;;;;;6.10;1.33;;;10.50;99.90;;;;;;5096867;28;20044;-70
2023/12/12 08:12:10;;;;;;;3.22;1.17;;;10.50;99.90;;;;;;5096785;28;20050;-68
2023/12/12 08:14:36;;;;;;;4.45;1.30;;;10.50;99.90;;;;;;5097187;28;20040;-68
2023/12/12 08:17:07;;;;;;;7.38;1.65;;;10.50;99.90;;;;;;5096656;28;20048;-67
2023/12/12 08:19:34;;;;;;;6.10;1.27;;;10.50;99.90;;;;;;5095918;28;20059;-67
2023/12/12 08:22:01;;;;;;;4.25;1.08;;;10.50;99.90;;;;;;5097222;28;20044;-68
2023/12/12 08:24:28;;;;;;;5.57;1.20;;;10.50;99.90;;;;;;5095527;28;20051;-68
2023/12/12 08:26:55;;;;;;;5.07;1.42;;;10.50;99.90;;;;;;5095813;28;20071;-69
2023/12/12 08:29:22;;;;;;;8.40;1.65;;;10.40;99.90;;;;;;5096978;28;20039;-70
2023/12/12 08:31:49;;;;;;;9.77;2.17;;;10.40;99.90;;;;;;5098719;28;20050;-70
2023/12/12 08:34:16;;;;;;;6.43;1.80;;;10.40;99.90;;;;;;5097974;28;20384;-70
2023/12/12 08:36:43;;;;;;;13.00;2.45;;;10.40;99.90;;;;;;5096719;28;20056;-71
2023/12/12 08:39:11;;;;;;;12.95;2.10;;;10.40;99.90;;;;;;5096654;28;20048;-70
2023/12/12 08:41:38;;;;;;;16.13;2.67;;;10.40;99.90;;;;;;5096635;28;20489;-70
2023/12/12 08:44:04;;;;;;;15.25;3.03;;;10.40;99.90;;;;;;5096072;28;20062;-70
2023/12/12 08:46:31;;;;;;;15.13;3.42;;;10.40;99.90;;;;;;5095291;28;20047;-70
2023/12/12 08:48:58;;;;;;;14.52;2.42;;;10.40;99.90;;;;;;5096139;28;20538;-70
2023/12/12 08:51:26;;;;;;;17.73;3.75;;;10.40;99.90;;;;;;5087581;28;20505;-70
2023/12/12 08:53:53;;;;;;;17.70;2.80;;;10.40;99.90;;;;;;5078397;28;20119;-71
2023/12/12 08:56:20;;;;;;;11.60;2.40;;;10.50;99.90;;;;;;5075760;28;20060;-71
2023/12/12 08:58:48;;;;;;;14.02;3.00;;;10.50;99.90;;;;;;5076232;28;20419;-71
2023/12/12 09:01:15;;;;;;;14.43;2.78;;;10.50;99.90;;;;;;5082670;28;20111;-71
2023/12/12 09:03:42;;;;;;;12.85;2.65;;;10.50;99.90;;;;;;5081307;28;20036;-70
2023/12/12 09:06:09;;;;;;;14.38;2.88;;;10.50;99.90;;;;;;5092074;28;20064;-70
2023/12/12 09:08:36;;;;;;;21.42;3.75;;;10.50;99.90;;;;;;5074243;28;20040;-71
2023/12/12 09:11:03;;;;;;;20.08;3.20;;;10.50;99.90;;;;;;5075301;28;20079;-70
2023/12/12 09:13:30;;;;;;;21.63;3.35;;;10.60;99.90;;;;;;5084608;28;20032;-71
2023/12/12 09:15:57;;;;;;;18.00;3.83;;;10.60;99.90;;;;;;5094654;28;20044;-71
2023/12/12 09:18:23;;;;;;;22.77;3.72;;;10.60;99.90;;;;;;5075026;28;20044;-71
2023/12/12 09:20:50;;;;;;;23.83;3.10;;;10.60;99.90;;;;;;5078570;28;20458;-70
2023/12/12 09:23:17;;;;;;;22.08;3.22;;;10.70;99.90;;;;;;5075014;28;20040;-71
2023/12/12 09:25:45;;;;;;;25.65;5.15;;;10.70;99.90;;;;;;5074809;28;20055;-71
2023/12/12 09:28:12;;;;;;;24.13;3.72;;;10.70;99.90;;;;;;5073060;28;20448;-69
2023/12/12 09:30:40;;;;;;;23.17;3.88;;;10.80;99.90;;;;;;5074781;28;20076;-70
2023/12/12 09:33:07;;;;;;;22.75;4.10;;;10.80;99.90;;;;;;5074784;28;20040;-69
2023/12/12 09:35:34;;;;;;;25.50;4.15;;;10.80;99.90;;;;;;5074768;28;20489;-70
2023/12/12 09:38:00;;;;;;;30.85;4.75;;;10.80;99.90;;;;;;5081516;28;20047;-69
2023/12/12 09:40:27;;;;;;;29.38;6.95;;;10.80;99.90;;;;;;5074382;28;20045;-69
2023/12/12 09:42:54;;;;;;;27.13;4.53;;;10.80;99.90;;;;;;5083678;28;20102;-68
2023/12/12 09:45:21;;;;;;;21.95;4.50;;;10.80;99.90;;;;;;5093863;28;20059;-69
2023/12/12 09:47:47;;;;;;;28.92;4.60;;;10.90;99.90;;;;;;5085135;28;20040;-71
2023/12/12 09:50:14;;;;;;;27.50;4.50;;;10.90;99.90;;;;;;5074633;28;20044;-66
2023/12/12 09:52:41;;;;;;;29.63;4.68;;;10.90;99.90;;;;;;5074499;28;20033;-68
2023/12/12 09:55:08;;;;;;;21.92;3.72;;;11.00;99.90;;;;;;5074715;28;20514;-68
2023/12/12 09:57:36;;;;;;;22.50;3.58;;;11.00;99.90;;;;;;5073730;28;20075;-66
2023/12/12 10:00:04;;;;;;;25.58;4.53;;;11.00;99.90;;;;;;5074896;28;20048;-67
2023/12/12 10:02:30;;;;;;;17.30;4.28;;;11.10;99.90;;;;;;5079118;28;20102;-67
2023/12/12 10:04:57;;;;;;;21.95;4.25;;;11.10;99.90;;;;;;5075681;28;20040;-67
2023/12/12 10:07:24;;;;;;;24.63;4.20;;;11.10;99.90;;;;;;5073659;28;20440;-67
2023/12/12 10:09:51;;;;;;;35.60;4.90;;;11.10;99.90;;;;;;5073994;28;20405;-68
2023/12/12 10:12:18;;;;;;;34.47;5.13;;;11.10;99.90;;;;;;5082122;28;20042;-67
2023/12/12 10:14:47;;;;;;;24.42;4.07;;;11.10;99.90;;;;;;5093461;28;20036;-67
2023/12/12 10:17:14;;;;;;;28.55;4.97;;;11.10;99.90;;;;;;5084898;28;20044;-67
2023/12/12 10:19:40;;;;;;;24.83;4.20;;;11.10;99.90;;;;;;5073754;28;20044;-67
2023/12/12 10:22:08;;;;;;;24.48;4.43;;;11.10;99.90;;;;;;5074050;28;20048;-67
2023/12/12 10:24:35;;;;;;;28.27;6.10;;;11.00;99.90;;;;;;5083817;28;20048;-67
2023/12/12 10:27:02;;;;;;;25.83;4.70;;;11.00;99.90;;;;;;5088015;28;20047;-67
2023/12/12 10:29:29;;;;;;;28.23;5.20;;;11.00;99.90;;;;;;5072386;28;20420;-68
2023/12/12 10:31:55;;;;;;;30.10;4.43;;;11.00;99.90;;;;;;5073784;28;20032;-67
2023/12/12 10:34:24;;;;;;;26.92;5.20;;;11.00;99.90;;;;;;5073753;28;20109;-67
2023/12/12 10:36:51;;;;;;;30.00;4.47;;;11.00;99.90;;;;;;5082404;28;20036;-67
2023/12/12 10:39:18;;;;;;;34.65;5.03;;;10.90;99.90;;;;;;5084815;28;20101;-67
2023/12/12 10:41:45;;;;;;;36.47;5.28;;;10.90;99.90;;;;;;5090868;28;20040;-67
2023/12/12 10:44:11;;;;;;;28.25;4.80;;;10.90;99.90;;;;;;5071974;28;20051;-67
2023/12/12 10:46:40;;;;;;;36.38;5.22;;;10.90;99.90;;;;;;5073726;28;20040;-68
2023/12/12 10:49:07;;;;;;;29.33;5.28;;;10.90;99.90;;;;;;5080960;28;20032;-67
2023/12/12 10:51:34;;;;;;;34.60;6.00;;;10.90;99.90;;;;;;5085362;28;20136;-67
2023/12/12 10:54:00;;;;;;;28.30;4.75;;;10.90;99.90;;;;;;5072499;28;20123;-67
2023/12/12 10:56:28;;;;;;;29.08;5.20;;;10.90;99.90;;;;;;5073101;28;20033;-66
2023/12/12 10:58:55;;;;;;;28.90;5.53;;;11.00;99.90;;;;;;5079281;28;20040;-66
2023/12/12 11:01:42;;;;;;;27.30;4.70;;;11.00;99.90;;;;;;5073633;28;20040;-66
2023/12/12 11:04:09;;;;;;;28.83;5.05;;;11.10;99.90;;;;;;5073908;28;20044;-66
2023/12/12 11:06:35;;;;;;;31.63;5.97;;;11.20;99.90;;;;;;5090082;28;20118;-68
2023/12/12 11:09:03;;;;;;;25.15;4.78;;;11.30;99.90;;;;;;5092411;28;20055;-67
2023/12/12 11:11:30;;;;;;;32.38;6.13;;;11.30;99.90;;;;;;5093488;28;20040;-67
2023/12/12 11:13:58;;;;;;;30.80;5.55;;;11.40;99.90;;;;;;5093276;28;20044;-68
2023/12/12 11:16:26;;;;;;;25.48;4.53;;;11.40;99.90;;;;;;5093310;28;20044;-68
2023/12/12 11:18:53;;;;;;;27.60;4.85;;;11.40;99.90;;;;;;5093453;28;20439;-68
2023/12/12 11:21:20;;;;;;;28.95;5.03;;;11.40;99.90;;;;;;5093887;28;20115;-69
2023/12/12 11:23:52;;;;;;;28.98;5.43;;;11.40;99.90;;;;;;5093875;28;20044;-69
2023/12/12 11:26:19;;;;;;;34.40;6.05;;;11.40;99.90;;;;;;5092876;28;20040;-68
2023/12/12 11:28:46;;;;;;;25.90;4.68;;;11.40;99.90;;;;;;5093395;28;20043;-68
2023/12/12 11:31:13;;;;;;;21.67;4.30;;;11.40;99.90;;;;;;5093338;28;20067;-68
2023/12/12 11:33:40;;;;;;;10.68;2.63;;;11.20;99.90;;;;;;5091085;28;20381;-69
2023/12/12 11:36:07;;;;;;;6.28;1.40;;;10.90;99.90;;;;;;5092214;28;20044;-69
2023/12/12 11:38:33;;;;;;;12.45;2.30;;;10.50;99.90;;;;;;5092181;28;20048;-70
2023/12/12 11:41:00;;;;;;;9.02;1.70;;;10.40;99.90;;;;;;5091000;28;20059;-70
2023/12/12 11:43:27;;;;;;;8.88;1.85;;;10.20;99.90;;;;;;5090974;28;20453;-70
2023/12/12 11:45:54;;;;;;;8.98;1.30;;;10.10;99.90;;;;;;5091031;28;20059;-70
2023/12/12 11:48:22;;;;;;;7.00;1.40;;;10.00;99.90;;;;;;5093087;28;20032;-70
2023/12/12 11:50:49;;;;;;;7.55;1.63;;;9.90;99.90;;;;;;5093822;28;20047;-70
2023/12/12 11:53:16;;;;;;;5.35;1.10;;;9.80;99.90;;;;;;5093044;28;20072;-70
2023/12/12 11:55:45;;;;;;;8.98;1.63;;;9.80;99.90;;;;;;5093494;28;20055;-70
2023/12/12 11:58:12;;;;;;;7.45;1.30;;;9.70;99.90;;;;;;5093169;28;20446;-70
2023/12/12 12:00:40;;;;;;;6.35;1.48;;;9.70;99.90;;;;;;5093698;28;20113;-70
2023/12/12 12:03:11;;;;;;;4.15;1.10;;;9.70;99.90;;;;;;5093480;28;20098;-70
2023/12/12 12:05:38;;;;;;;6.20;1.50;;;9.70;99.90;;;;;;5093100;28;20067;-70
2023/12/12 12:08:05;;;;;;;5.53;1.55;;;9.70;99.90;;;;;;5093470;28;20058;-70
2023/12/12 12:10:32;;;;;;;7.32;1.60;;;9.70;99.90;;;;;;5092388;28;20068;-70
2023/12/12 12:12:59;;;;;;;6.32;1.50;;;9.70;99.90;;;;;;5093607;28;20036;-70
2023/12/12 12:15:26;;;;;;;6.63;1.10;;;9.70;99.90;;;;;;5093586;28;20046;-69
2023/12/12 12:17:54;;;;;;;4.18;1.15;;;9.70;99.90;;;;;;5092322;28;20040;-69
2023/12/12 12:20:21;;;;;;;6.65;1.10;;;9.70;99.90;;;;;;5092909;28;20044;-70
2023/12/12 12:22:48;;;;;;;4.22;1.00;;;9.70;99.90;;;;;;5097224;28;20385;-69
2023/12/12 12:25:15;;;;;;;5.20;1.42;;;9.60;99.90;;;;;;5097335;28;20050;-69
2023/12/12 12:27:41;;;;;;;7.65;1.30;;;9.60;99.90;;;;;;5096442;28;20059;-69
2023/12/12 12:30:08;;;;;;;5.43;1.65;;;9.60;99.90;;;;;;5096512;28;20044;-70
2023/12/12 12:32:35;;;;;;;6.50;1.15;;;9.60;99.90;;;;;;5097155;28;20067;-70
2023/12/12 12:35:02;;;;;;;4.60;1.10;;;9.60;99.90;;;;;;5097128;28;20130;-74
2023/12/12 12:37:29;;;;;;;6.22;1.42;;;9.50;99.90;;;;;;5096801;28;20036;-74
2023/12/12 12:39:56;;;;;;;4.53;1.23;;;9.50;99.90;;;;;;5096916;28;20040;-74
2023/12/12 12:42:23;;;;;;;5.15;1.30;;;9.50;99.90;;;;;;5096997;28;20044;-74
2023/12/12 12:44:50;;;;;;;5.07;1.30;;;9.50;99.90;;;;;;5096627;28;20078;-74